sensor_id;sensor_type;location;lat;lon;timestamp;P1;durP1;ratioP1;P2;durP2;ratioP2
15496;SDS011;7850;52.204;5.942;2023-03-04T00:03:18;0.10;;;0.10;;
15496;SDS011;7850;52.204;5.942;2023-03-04T00:03:18;0.50;;;0.50;;
15496;SDS011;7850;52.204;5.942;2023-03-04T00:03:18;0.14;;;0.14;;
15496;SDS011;7850;52.204;5.942;2023-03-04T00:03:18;0.10;;;0.10;;
15496;SDS011;7850;52.204;5.942;2023-03-04T00:04:11;0.83;;;0.82;;
15496;SDS011;7850;52.204;5.942;2023-03-04T00:05:11;0.74;;;0.73;;
15496;SDS011;7850;52.204;5.942;2023-03-04T00:06:11;0.70;;;0.70;;
15496;SDS011;7850;52.204;5.942;2023-03-04T00:07:11;0.76;;;0.75;;
15496;SDS011;7850;52.204;5.942;2023-03-04T00:08:12;0.70;;;0.70;;
15496;SDS011;7850;52.204;5.942;2023-03-04T00:09:11;0.77;;;0.77;;
15496;SDS011;7850;52.204;5.942;2023-03-04T00:10:12;0.61;;;0.61;;
15496;SDS011;7850;52.204;5.942;2023-03-04T00:11:12;0.66;;;0.65;;
15496;SDS011;7850;52.204;5.942;2023-03-04T00:12:12;0.78;;;0.78;;
15496;SDS011;7850;52.204;5.942;2023-03-04T00:13:12;0.66;;;0.66;;
15496;SDS011;7850;52.204;5.942;2023-03-04T00:14:12;0.80;;;0.80;;
15496;SDS011;7850;52.204;5.942;2023-03-04T00:15:12;0.70;;;0.70;;
15496;SDS011;7850;52.204;5.942;2023-03-04T00:16:12;0.60;;;0.60;;
15496;SDS011;7850;52.204;5.942;2023-03-04T00:17:12;0.68;;;0.68;;
15496;SDS011;7850;52.204;5.942;2023-03-04T00:18:12;0.65;;;0.64;;
15496;SDS011;7850;52.204;5.942;2023-03-04T00:19:12;0.59;;;0.59;;
15496;SDS011;7850;52.204;5.942;2023-03-04T00:20:12;0.69;;;0.68;;
15496;SDS011;7850;52.204;5.942;2023-03-04T00:21:12;0.70;;;0.69;;
15496;SDS011;7850;52.204;5.942;2023-03-04T00:22:12;0.63;;;0.62;;
15496;SDS011;7850;52.204;5.942;2023-03-04T00:23:12;0.76;;;0.76;;
15496;SDS011;7850;52.204;5.942;2023-03-04T00:24:12;0.62;;;0.62;;
15496;SDS011;7850;52.204;5.942;2023-03-04T00:25:12;0.79;;;0.79;;
15496;SDS011;7850;52.204;5.942;2023-03-04T00:26:13;0.65;;;0.65;;
15496;SDS011;7850;52.204;5.942;2023-03-04T00:27:13;0.43;;;0.43;;
15496;SDS011;7850;52.204;5.942;2023-03-04T00:28:13;0.20;;;0.20;;
15496;SDS011;7850;52.204;5.942;2023-03-04T00:29:13;0.20;;;0.20;;
15496;SDS011;7850;52.204;5.942;2023-03-04T00:30:13;0.17;;;0.16;;
15496;SDS011;7850;52.204;5.942;2023-03-04T00:31:13;0.32;;;0.31;;
15496;SDS011;7850;52.204;5.942;2023-03-04T00:32:13;0.62;;;0.62;;
15496;SDS011;7850;52.204;5.942;2023-03-04T00:33:13;0.70;;;0.70;;
15496;SDS011;7850;52.204;5.942;2023-03-04T00:34:13;0.20;;;0.20;;
15496;SDS011;7850;52.204;5.942;2023-03-04T00:35:13;0.20;;;0.20;;
15496;SDS011;7850;52.204;5.942;2023-03-04T00:36:13;0.19;;;0.19;;
15496;SDS011;7850;52.204;5.942;2023-03-04T00:37:13;0.11;;;0.11;;
15496;SDS011;7850;52.204;5.942;2023-03-04T00:38:13;0.20;;;0.20;;
15496;SDS011;7850;52.204;5.942;2023-03-04T00:39:14;0.15;;;0.14;;
15496;SDS011;7850;52.204;5.942;2023-03-04T00:40:14;0.10;;;0.10;;
15496;SDS011;7850;52.204;5.942;2023-03-04T00:41:14;0.10;;;0.10;;
15496;SDS011;7850;52.204;5.942;2023-03-04T00:42:14;0.20;;;0.20;;
15496;SDS011;7850;52.204;5.942;2023-03-04T00:43:14;0.10;;;0.10;;
15496;SDS011;7850;52.204;5.942;2023-03-04T00:44:14;0.20;;;0.20;;
15496;SDS011;7850;52.204;5.942;2023-03-04T00:45:14;0.11;;;0.11;;
15496;SDS011;7850;52.204;5.942;2023-03-04T00:46:14;0.10;;;0.10;;
15496;SDS011;7850;52.204;5.942;2023-03-04T00:47:14;0.20;;;0.20;;
15496;SDS011;7850;52.204;5.942;2023-03-04T00:48:14;0.10;;;0.10;;
15496;SDS011;7850;52.204;5.942;2023-03-04T00:49:14;0.15;;;0.15;;
15496;SDS011;7850;52.204;5.942;2023-03-04T00:50:14;0.16;;;0.15;;
15496;SDS011;7850;52.204;5.942;2023-03-04T00:51:14;0.20;;;0.20;;
15496;SDS011;7850;52.204;5.942;2023-03-04T00:52:14;0.10;;;0.10;;
15496;SDS011;7850;52.204;5.942;2023-03-04T00:53:14;0.10;;;0.10;;
15496;SDS011;7850;52.204;5.942;2023-03-04T00:54:14;0.20;;;0.19;;
15496;SDS011;7850;52.204;5.942;2023-03-04T00:55:15;0.20;;;0.20;;
15496;SDS011;7850;52.204;5.942;2023-03-04T00:56:15;0.11;;;0.10;;
15496;SDS011;7850;52.204;5.942;2023-03-04T00:57:15;0.20;;;0.20;;
15496;SDS011;7850;52.204;5.942;2023-03-04T00:58:15;0.20;;;0.20;;
15496;SDS011;7850;52.204;5.942;2023-03-04T00:59:15;0.11;;;0.10;;
15496;SDS011;7850;52.204;5.942;2023-03-04T01:00:15;0.20;;;0.19;;
15496;SDS011;7850;52.204;5.942;2023-03-04T01:01:15;0.20;;;0.20;;
15496;SDS011;7850;52.204;5.942;2023-03-04T01:02:15;0.14;;;0.14;;
15496;SDS011;7850;52.204;5.942;2023-03-04T01:03:15;0.12;;;0.12;;
15496;SDS011;7850;52.204;5.942;2023-03-04T01:04:15;0.12;;;0.11;;
15496;SDS011;7850;52.204;5.942;2023-03-04T01:05:15;0.20;;;0.20;;
15496;SDS011;7850;52.204;5.942;2023-03-04T01:06:15;0.14;;;0.14;;
15496;SDS011;7850;52.204;5.942;2023-03-04T01:07:15;0.10;;;0.10;;
15496;SDS011;7850;52.204;5.942;2023-03-04T01:08:15;0.11;;;0.10;;
15496;SDS011;7850;52.204;5.942;2023-03-04T01:09:15;0.10;;;0.10;;
15496;SDS011;7850;52.204;5.942;2023-03-04T01:10:15;0.18;;;0.18;;
15496;SDS011;7850;52.204;5.942;2023-03-04T01:11:15;0.20;;;0.19;;
15496;SDS011;7850;52.204;5.942;2023-03-04T01:12:16;0.10;;;0.10;;
15496;SDS011;7850;52.204;5.942;2023-03-04T01:13:16;0.37;;;0.37;;
15496;SDS011;7850;52.204;5.942;2023-03-04T01:14:16;0.70;;;0.70;;
15496;SDS011;7850;52.204;5.942;2023-03-04T01:15:16;0.71;;;0.70;;
15496;SDS011;7850;52.204;5.942;2023-03-04T01:16:16;0.70;;;0.70;;
15496;SDS011;7850;52.204;5.942;2023-03-04T01:17:16;0.67;;;0.66;;
15496;SDS011;7850;52.204;5.942;2023-03-04T01:18:16;0.78;;;0.77;;
15496;SDS011;7850;52.204;5.942;2023-03-04T01:19:16;0.24;;;0.23;;
15496;SDS011;7850;52.204;5.942;2023-03-04T01:20:16;0.15;;;0.15;;
15496;SDS011;7850;52.204;5.942;2023-03-04T01:21:16;0.16;;;0.15;;
15496;SDS011;7850;52.204;5.942;2023-03-04T01:22:16;0.10;;;0.10;;
15496;SDS011;7850;52.204;5.942;2023-03-04T01:23:16;0.10;;;0.10;;
15496;SDS011;7850;52.204;5.942;2023-03-04T01:24:16;0.10;;;0.10;;
15496;SDS011;7850;52.204;5.942;2023-03-04T01:25:16;0.10;;;0.10;;
15496;SDS011;7850;52.204;5.942;2023-03-04T01:26:16;0.10;;;0.10;;
15496;SDS011;7850;52.204;5.942;2023-03-04T01:27:16;0.10;;;0.10;;
15496;SDS011;7850;52.204;5.942;2023-03-04T01:28:17;0.15;;;0.14;;
15496;SDS011;7850;52.204;5.942;2023-03-04T01:29:17;0.19;;;0.18;;
15496;SDS011;7850;52.204;5.942;2023-03-04T01:30:17;0.10;;;0.10;;
15496;SDS011;7850;52.204;5.942;2023-03-04T01:31:17;0.15;;;0.15;;
15496;SDS011;7850;52.204;5.942;2023-03-04T01:32:17;0.13;;;0.13;;
15496;SDS011;7850;52.204;5.942;2023-03-04T01:33:17;0.10;;;0.10;;
15496;SDS011;7850;52.204;5.942;2023-03-04T01:34:17;0.14;;;0.13;;
15496;SDS011;7850;52.204;5.942;2023-03-04T01:35:17;0.13;;;0.12;;
15496;SDS011;7850;52.204;5.942;2023-03-04T01:36:17;0.20;;;0.20;;
15496;SDS011;7850;52.204;5.942;2023-03-04T01:37:17;0.20;;;0.20;;
15496;SDS011;7850;52.204;5.942;2023-03-04T01:38:17;0.13;;;0.12;;
15496;SDS011;7850;52.204;5.942;2023-03-04T01:39:17;0.20;;;0.20;;
15496;SDS011;7850;52.204;5.942;2023-03-04T01:40:18;0.10;;;0.10;;
15496;SDS011;7850;52.204;5.942;2023-03-04T01:41:19;0.20;;;0.20;;
15496;SDS011;7850;52.204;5.942;2023-03-04T01:42:18;0.20;;;0.20;;
15496;SDS011;7850;52.204;5.942;2023-03-04T01:43:18;0.20;;;0.20;;
15496;SDS011;7850;52.204;5.942;2023-03-04T01:44:18;0.18;;;0.17;;
15496;SDS011;7850;52.204;5.942;2023-03-04T01:45:18;0.18;;;0.17;;
15496;SDS011;7850;52.204;5.942;2023-03-04T01:46:18;0.20;;;0.20;;
15496;SDS011;7850;52.204;5.942;2023-03-04T01:47:18;0.18;;;0.17;;
15496;SDS011;7850;52.204;5.942;2023-03-04T01:48:19;0.17;;;0.16;;
15496;SDS011;7850;52.204;5.942;2023-03-04T01:49:18;0.20;;;0.20;;
15496;SDS011;7850;52.204;5.942;2023-03-04T01:50:20;0.14;;;0.14;;
15496;SDS011;7850;52.204;5.942;2023-03-04T01:51:18;0.10;;;0.10;;
15496;SDS011;7850;52.204;5.942;2023-03-04T01:52:18;0.20;;;0.20;;
15496;SDS011;7850;52.204;5.942;2023-03-04T01:53:19;0.10;;;0.10;;
15496;SDS011;7850;52.204;5.942;2023-03-04T01:54:18;0.19;;;0.19;;
15496;SDS011;7850;52.204;5.942;2023-03-04T01:55:19;0.20;;;0.20;;
15496;SDS011;7850;52.204;5.942;2023-03-04T01:56:19;0.10;;;0.10;;
15496;SDS011;7850;52.204;5.942;2023-03-04T01:57:19;0.20;;;0.19;;
15496;SDS011;7850;52.204;5.942;2023-03-04T01:58:18;0.10;;;0.10;;
15496;SDS011;7850;52.204;5.942;2023-03-04T01:59:19;0.10;;;0.10;;
15496;SDS011;7850;52.204;5.942;2023-03-04T02:00:21;0.20;;;0.20;;
15496;SDS011;7850;52.204;5.942;2023-03-04T02:01:18;0.10;;;0.10;;
15496;SDS011;7850;52.204;5.942;2023-03-04T02:02:19;0.10;;;0.10;;
15496;SDS011;7850;52.204;5.942;2023-03-04T02:03:19;0.14;;;0.14;;
15496;SDS011;7850;52.204;5.942;2023-03-04T02:04:19;0.14;;;0.13;;
15496;SDS011;7850;52.204;5.942;2023-03-04T02:05:19;0.12;;;0.12;;
15496;SDS011;7850;52.204;5.942;2023-03-04T02:06:19;0.10;;;0.10;;
15496;SDS011;7850;52.204;5.942;2023-03-04T02:07:19;0.20;;;0.20;;
15496;SDS011;7850;52.204;5.942;2023-03-04T02:08:20;0.13;;;0.13;;
15496;SDS011;7850;52.204;5.942;2023-03-04T02:09:19;0.18;;;0.17;;
15496;SDS011;7850;52.204;5.942;2023-03-04T02:10:19;0.20;;;0.20;;
15496;SDS011;7850;52.204;5.942;2023-03-04T02:11:19;0.10;;;0.10;;
15496;SDS011;7850;52.204;5.942;2023-03-04T02:12:19;0.20;;;0.20;;
15496;SDS011;7850;52.204;5.942;2023-03-04T02:13:20;0.20;;;0.20;;
15496;SDS011;7850;52.204;5.942;2023-03-04T02:14:20;0.20;;;0.20;;
15496;SDS011;7850;52.204;5.942;2023-03-04T02:15:20;0.16;;;0.15;;
15496;SDS011;7850;52.204;5.942;2023-03-04T02:16:20;0.18;;;0.18;;
15496;SDS011;7850;52.204;5.942;2023-03-04T02:17:23;0.10;;;0.10;;
15496;SDS011;7850;52.204;5.942;2023-03-04T02:18:20;0.20;;;0.19;;
15496;SDS011;7850;52.204;5.942;2023-03-04T02:19:22;0.10;;;0.10;;
15496;SDS011;7850;52.204;5.942;2023-03-04T02:20:24;0.10;;;0.10;;
15496;SDS011;7850;52.204;5.942;2023-03-04T02:21:21;0.16;;;0.15;;
15496;SDS011;7850;52.204;5.942;2023-03-04T02:22:20;0.10;;;0.10;;
15496;SDS011;7850;52.204;5.942;2023-03-04T02:23:21;0.10;;;0.10;;
15496;SDS011;7850;52.204;5.942;2023-03-04T02:24:21;0.10;;;0.10;;
15496;SDS011;7850;52.204;5.942;2023-03-04T02:25:21;0.13;;;0.12;;
15496;SDS011;7850;52.204;5.942;2023-03-04T02:26:20;0.10;;;0.10;;
15496;SDS011;7850;52.204;5.942;2023-03-04T02:27:20;0.14;;;0.14;;
15496;SDS011;7850;52.204;5.942;2023-03-04T02:28:20;0.20;;;0.20;;
15496;SDS011;7850;52.204;5.942;2023-03-04T02:29:20;0.19;;;0.18;;
15496;SDS011;7850;52.204;5.942;2023-03-04T02:30:20;0.19;;;0.19;;
15496;SDS011;7850;52.204;5.942;2023-03-04T02:31:22;0.10;;;0.10;;
15496;SDS011;7850;52.204;5.942;2023-03-04T02:32:20;0.10;;;0.10;;
15496;SDS011;7850;52.204;5.942;2023-03-04T02:33:20;0.61;;;0.61;;
15496;SDS011;7850;52.204;5.942;2023-03-04T02:34:21;1.10;;;1.10;;
15496;SDS011;7850;52.204;5.942;2023-03-04T02:35:20;1.16;;;1.16;;
15496;SDS011;7850;52.204;5.942;2023-03-04T02:36:21;0.82;;;0.82;;
15496;SDS011;7850;52.204;5.942;2023-03-04T02:37:21;0.76;;;0.75;;
15496;SDS011;7850;52.204;5.942;2023-03-04T02:38:21;0.78;;;0.78;;
15496;SDS011;7850;52.204;5.942;2023-03-04T02:39:22;0.83;;;0.83;;
15496;SDS011;7850;52.204;5.942;2023-03-04T02:40:22;0.80;;;0.80;;
15496;SDS011;7850;52.204;5.942;2023-03-04T02:41:22;0.86;;;0.86;;
15496;SDS011;7850;52.204;5.942;2023-03-04T02:42:21;0.90;;;0.90;;
15496;SDS011;7850;52.204;5.942;2023-03-04T02:43:21;0.92;;;0.91;;
15496;SDS011;7850;52.204;5.942;2023-03-04T02:44:21;0.86;;;0.86;;
15496;SDS011;7850;52.204;5.942;2023-03-04T02:45:39;0.85;;;0.84;;
15496;SDS011;7850;52.204;5.942;2023-03-04T02:46:21;1.15;;;1.14;;
15496;SDS011;7850;52.204;5.942;2023-03-04T02:47:21;0.86;;;0.85;;
15496;SDS011;7850;52.204;5.942;2023-03-04T02:48:21;0.83;;;0.83;;
15496;SDS011;7850;52.204;5.942;2023-03-04T02:49:22;0.76;;;0.76;;
15496;SDS011;7850;52.204;5.942;2023-03-04T02:50:21;0.14;;;0.13;;
15496;SDS011;7850;52.204;5.942;2023-03-04T02:51:21;0.10;;;0.10;;
15496;SDS011;7850;52.204;5.942;2023-03-04T02:52:25;0.17;;;0.16;;
15496;SDS011;7850;52.204;5.942;2023-03-04T02:53:22;0.11;;;0.11;;
15496;SDS011;7850;52.204;5.942;2023-03-04T02:54:22;0.10;;;0.10;;
15496;SDS011;7850;52.204;5.942;2023-03-04T02:55:22;0.10;;;0.10;;
15496;SDS011;7850;52.204;5.942;2023-03-04T02:56:22;0.10;;;0.10;;
15496;SDS011;7850;52.204;5.942;2023-03-04T02:57:22;0.20;;;0.20;;
15496;SDS011;7850;52.204;5.942;2023-03-04T02:58:22;0.10;;;0.10;;
15496;SDS011;7850;52.204;5.942;2023-03-04T02:59:22;0.10;;;0.10;;
15496;SDS011;7850;52.204;5.942;2023-03-04T03:00:22;0.16;;;0.16;;
15496;SDS011;7850;52.204;5.942;2023-03-04T03:01:22;0.10;;;0.10;;
15496;SDS011;7850;52.204;5.942;2023-03-04T03:02:22;0.19;;;0.18;;
15496;SDS011;7850;52.204;5.942;2023-03-04T03:03:22;0.10;;;0.10;;
15496;SDS011;7850;52.204;5.942;2023-03-04T03:04:22;0.10;;;0.10;;
15496;SDS011;7850;52.204;5.942;2023-03-04T03:05:23;0.10;;;0.10;;
15496;SDS011;7850;52.204;5.942;2023-03-04T03:06:22;0.13;;;0.13;;
15496;SDS011;7850;52.204;5.942;2023-03-04T03:07:22;0.10;;;0.10;;
15496;SDS011;7850;52.204;5.942;2023-03-04T03:08:22;0.10;;;0.10;;
15496;SDS011;7850;52.204;5.942;2023-03-04T03:09:23;0.10;;;0.10;;
15496;SDS011;7850;52.204;5.942;2023-03-04T03:10:23;0.14;;;0.14;;
15496;SDS011;7850;52.204;5.942;2023-03-04T03:11:23;0.10;;;0.10;;
15496;SDS011;7850;52.204;5.942;2023-03-04T03:12:23;0.10;;;0.10;;
15496;SDS011;7850;52.204;5.942;2023-03-04T03:13:23;0.20;;;0.19;;
15496;SDS011;7850;52.204;5.942;2023-03-04T03:14:23;0.10;;;0.10;;
15496;SDS011;7850;52.204;5.942;2023-03-04T03:15:23;0.16;;;0.16;;
15496;SDS011;7850;52.204;5.942;2023-03-04T03:16:23;0.10;;;0.10;;
15496;SDS011;7850;52.204;5.942;2023-03-04T03:17:23;0.10;;;0.10;;
15496;SDS011;7850;52.204;5.942;2023-03-04T03:18:23;0.12;;;0.12;;
15496;SDS011;7850;52.204;5.942;2023-03-04T03:19:23;0.10;;;0.10;;
15496;SDS011;7850;52.204;5.942;2023-03-04T03:20:23;0.11;;;0.10;;
15496;SDS011;7850;52.204;5.942;2023-03-04T03:21:23;0.20;;;0.20;;
15496;SDS011;7850;52.204;5.942;2023-03-04T03:22:23;0.20;;;0.20;;
15496;SDS011;7850;52.204;5.942;2023-03-04T03:23:24;0.20;;;0.20;;
15496;SDS011;7850;52.204;5.942;2023-03-04T03:24:24;0.20;;;0.20;;
15496;SDS011;7850;52.204;5.942;2023-03-04T03:25:24;0.12;;;0.11;;
15496;SDS011;7850;52.204;5.942;2023-03-04T03:26:24;0.15;;;0.15;;
15496;SDS011;7850;52.204;5.942;2023-03-04T03:27:24;0.10;;;0.10;;
15496;SDS011;7850;52.204;5.942;2023-03-04T03:28:24;0.20;;;0.20;;
15496;SDS011;7850;52.204;5.942;2023-03-04T03:29:24;0.15;;;0.14;;
15496;SDS011;7850;52.204;5.942;2023-03-04T03:30:24;0.10;;;0.10;;
15496;SDS011;7850;52.204;5.942;2023-03-04T03:31:24;0.10;;;0.10;;
15496;SDS011;7850;52.204;5.942;2023-03-04T03:32:24;0.11;;;0.11;;
15496;SDS011;7850;52.204;5.942;2023-03-04T03:33:24;0.17;;;0.17;;
15496;SDS011;7850;52.204;5.942;2023-03-04T03:34:24;0.10;;;0.10;;
15496;SDS011;7850;52.204;5.942;2023-03-04T03:35:24;0.11;;;0.10;;
15496;SDS011;7850;52.204;5.942;2023-03-04T03:36:24;0.20;;;0.20;;
15496;SDS011;7850;52.204;5.942;2023-03-04T03:37:25;0.10;;;0.10;;
15496;SDS011;7850;52.204;5.942;2023-03-04T03:38:25;0.13;;;0.13;;
15496;SDS011;7850;52.204;5.942;2023-03-04T03:39:25;0.17;;;0.16;;
15496;SDS011;7850;52.204;5.942;2023-03-04T03:40:25;0.10;;;0.10;;
15496;SDS011;7850;52.204;5.942;2023-03-04T03:41:25;0.15;;;0.14;;
15496;SDS011;7850;52.204;5.942;2023-03-04T03:42:25;0.17;;;0.17;;
15496;SDS011;7850;52.204;5.942;2023-03-04T03:43:25;0.14;;;0.13;;
15496;SDS011;7850;52.204;5.942;2023-03-04T03:44:25;0.20;;;0.20;;
15496;SDS011;7850;52.204;5.942;2023-03-04T03:45:25;0.11;;;0.11;;
15496;SDS011;7850;52.204;5.942;2023-03-04T03:46:25;0.10;;;0.10;;
15496;SDS011;7850;52.204;5.942;2023-03-04T03:47:25;0.10;;;0.10;;
15496;SDS011;7850;52.204;5.942;2023-03-04T03:48:25;0.10;;;0.10;;
15496;SDS011;7850;52.204;5.942;2023-03-04T03:49:25;0.20;;;0.20;;
15496;SDS011;7850;52.204;5.942;2023-03-04T03:50:25;0.18;;;0.18;;
15496;SDS011;7850;52.204;5.942;2023-03-04T03:51:26;0.10;;;0.10;;
15496;SDS011;7850;52.204;5.942;2023-03-04T03:52:26;0.17;;;0.17;;
15496;SDS011;7850;52.204;5.942;2023-03-04T03:53:26;0.10;;;0.10;;
15496;SDS011;7850;52.204;5.942;2023-03-04T03:54:26;0.20;;;0.20;;
15496;SDS011;7850;52.204;5.942;2023-03-04T03:55:26;0.17;;;0.16;;
15496;SDS011;7850;52.204;5.942;2023-03-04T03:56:26;0.10;;;0.10;;
15496;SDS011;7850;52.204;5.942;2023-03-04T03:57:26;0.17;;;0.16;;
15496;SDS011;7850;52.204;5.942;2023-03-04T03:58:26;0.10;;;0.10;;
15496;SDS011;7850;52.204;5.942;2023-03-04T03:59:26;0.10;;;0.10;;
15496;SDS011;7850;52.204;5.942;2023-03-04T04:00:26;0.19;;;0.18;;
15496;SDS011;7850;52.204;5.942;2023-03-04T04:01:26;0.11;;;0.11;;
15496;SDS011;7850;52.204;5.942;2023-03-04T04:02:26;0.10;;;0.10;;
15496;SDS011;7850;52.204;5.942;2023-03-04T04:03:26;0.10;;;0.10;;
15496;SDS011;7850;52.204;5.942;2023-03-04T04:04:26;0.10;;;0.10;;
15496;SDS011;7850;52.204;5.942;2023-03-04T04:05:27;0.10;;;0.10;;
15496;SDS011;7850;52.204;5.942;2023-03-04T04:06:27;0.10;;;0.10;;
15496;SDS011;7850;52.204;5.942;2023-03-04T04:07:27;0.10;;;0.10;;
15496;SDS011;7850;52.204;5.942;2023-03-04T04:08:27;0.10;;;0.10;;
15496;SDS011;7850;52.204;5.942;2023-03-04T04:09:27;0.10;;;0.10;;
15496;SDS011;7850;52.204;5.942;2023-03-04T04:10:27;0.14;;;0.13;;
15496;SDS011;7850;52.204;5.942;2023-03-04T04:11:27;0.10;;;0.10;;
15496;SDS011;7850;52.204;5.942;2023-03-04T04:12:27;0.10;;;0.10;;
15496;SDS011;7850;52.204;5.942;2023-03-04T04:13:27;0.19;;;0.19;;
15496;SDS011;7850;52.204;5.942;2023-03-04T04:14:27;0.10;;;0.10;;
15496;SDS011;7850;52.204;5.942;2023-03-04T04:15:27;0.19;;;0.19;;
15496;SDS011;7850;52.204;5.942;2023-03-04T04:16:27;0.20;;;0.20;;
15496;SDS011;7850;52.204;5.942;2023-03-04T04:17:27;0.12;;;0.12;;
15496;SDS011;7850;52.204;5.942;2023-03-04T04:18:27;0.10;;;0.10;;
15496;SDS011;7850;52.204;5.942;2023-03-04T04:19:27;0.10;;;0.10;;
15496;SDS011;7850;52.204;5.942;2023-03-04T04:20:27;0.10;;;0.10;;
15496;SDS011;7850;52.204;5.942;2023-03-04T04:21:27;0.20;;;0.20;;
15496;SDS011;7850;52.204;5.942;2023-03-04T04:22:28;0.15;;;0.15;;
15496;SDS011;7850;52.204;5.942;2023-03-04T04:23:28;0.10;;;0.10;;
15496;SDS011;7850;52.204;5.942;2023-03-04T04:24:28;0.10;;;0.10;;
15496;SDS011;7850;52.204;5.942;2023-03-04T04:25:28;0.10;;;0.10;;
15496;SDS011;7850;52.204;5.942;2023-03-04T04:26:28;0.10;;;0.10;;
15496;SDS011;7850;52.204;5.942;2023-03-04T04:27:28;0.10;;;0.10;;
15496;SDS011;7850;52.204;5.942;2023-03-04T04:28:28;0.13;;;0.12;;
15496;SDS011;7850;52.204;5.942;2023-03-04T04:29:28;0.33;;;0.33;;
15496;SDS011;7850;52.204;5.942;2023-03-04T04:30:28;0.79;;;0.79;;
15496;SDS011;7850;52.204;5.942;2023-03-04T04:31:28;0.89;;;0.88;;
15496;SDS011;7850;52.204;5.942;2023-03-04T04:32:28;0.94;;;0.93;;
15496;SDS011;7850;52.204;5.942;2023-03-04T04:33:28;0.80;;;0.80;;
15496;SDS011;7850;52.204;5.942;2023-03-04T04:34:28;0.93;;;0.92;;
15496;SDS011;7850;52.204;5.942;2023-03-04T04:35:29;1.05;;;1.04;;
15496;SDS011;7850;52.204;5.942;2023-03-04T04:36:29;0.88;;;0.87;;
15496;SDS011;7850;52.204;5.942;2023-03-04T04:37:29;1.10;;;1.10;;
15496;SDS011;7850;52.204;5.942;2023-03-04T04:38:29;1.15;;;1.15;;
15496;SDS011;7850;52.204;5.942;2023-03-04T04:39:29;1.05;;;1.05;;
15496;SDS011;7850;52.204;5.942;2023-03-04T04:40:29;1.00;;;1.00;;
15496;SDS011;7850;52.204;5.942;2023-03-04T04:41:30;1.09;;;1.08;;
15496;SDS011;7850;52.204;5.942;2023-03-04T04:42:29;1.05;;;1.05;;
15496;SDS011;7850;52.204;5.942;2023-03-04T04:43:29;0.94;;;0.93;;
15496;SDS011;7850;52.204;5.942;2023-03-04T04:44:29;1.02;;;1.01;;
15496;SDS011;7850;52.204;5.942;2023-03-04T04:45:29;0.43;;;0.43;;
15496;SDS011;7850;52.204;5.942;2023-03-04T04:46:29;0.14;;;0.13;;
15496;SDS011;7850;52.204;5.942;2023-03-04T04:47:29;0.20;;;0.20;;
15496;SDS011;7850;52.204;5.942;2023-03-04T04:48:29;0.10;;;0.10;;
15496;SDS011;7850;52.204;5.942;2023-03-04T04:49:29;0.20;;;0.20;;
15496;SDS011;7850;52.204;5.942;2023-03-04T04:50:29;0.13;;;0.13;;
15496;SDS011;7850;52.204;5.942;2023-03-04T04:51:30;0.10;;;0.10;;
15496;SDS011;7850;52.204;5.942;2023-03-04T04:52:30;0.13;;;0.13;;
15496;SDS011;7850;52.204;5.942;2023-03-04T04:53:30;0.13;;;0.12;;
15496;SDS011;7850;52.204;5.942;2023-03-04T04:54:30;0.10;;;0.10;;
15496;SDS011;7850;52.204;5.942;2023-03-04T04:55:30;0.20;;;0.20;;
15496;SDS011;7850;52.204;5.942;2023-03-04T04:56:30;0.10;;;0.10;;
15496;SDS011;7850;52.204;5.942;2023-03-04T04:57:30;0.20;;;0.20;;
15496;SDS011;7850;52.204;5.942;2023-03-04T04:58:30;0.10;;;0.10;;
15496;SDS011;7850;52.204;5.942;2023-03-04T04:59:30;0.86;;;0.86;;
15496;SDS011;7850;52.204;5.942;2023-03-04T05:00:30;0.95;;;0.94;;
15496;SDS011;7850;52.204;5.942;2023-03-04T05:01:30;0.98;;;0.97;;
15496;SDS011;7850;52.204;5.942;2023-03-04T05:02:30;1.21;;;1.21;;
15496;SDS011;7850;52.204;5.942;2023-03-04T05:03:31;1.00;;;1.00;;
15496;SDS011;7850;52.204;5.942;2023-03-04T05:04:30;1.00;;;0.99;;
15496;SDS011;7850;52.204;5.942;2023-03-04T05:05:31;0.99;;;0.99;;
15496;SDS011;7850;52.204;5.942;2023-03-04T05:06:31;0.89;;;0.89;;
15496;SDS011;7850;52.204;5.942;2023-03-04T05:07:31;1.03;;;1.02;;
15496;SDS011;7850;52.204;5.942;2023-03-04T05:08:31;0.88;;;0.88;;
15496;SDS011;7850;52.204;5.942;2023-03-04T05:09:31;1.03;;;1.03;;
15496;SDS011;7850;52.204;5.942;2023-03-04T05:10:31;0.96;;;0.95;;
15496;SDS011;7850;52.204;5.942;2023-03-04T05:11:31;1.09;;;1.09;;
15496;SDS011;7850;52.204;5.942;2023-03-04T05:12:31;1.14;;;1.14;;
15496;SDS011;7850;52.204;5.942;2023-03-04T05:13:31;1.08;;;1.07;;
15496;SDS011;7850;52.204;5.942;2023-03-04T05:14:31;0.50;;;0.50;;
15496;SDS011;7850;52.204;5.942;2023-03-04T05:15:31;0.20;;;0.20;;
15496;SDS011;7850;52.204;5.942;2023-03-04T05:16:31;0.15;;;0.14;;
15496;SDS011;7850;52.204;5.942;2023-03-04T05:17:31;0.10;;;0.10;;
15496;SDS011;7850;52.204;5.942;2023-03-04T05:18:31;0.20;;;0.20;;
15496;SDS011;7850;52.204;5.942;2023-03-04T05:19:32;0.12;;;0.11;;
15496;SDS011;7850;52.204;5.942;2023-03-04T05:20:32;0.20;;;0.20;;
15496;SDS011;7850;52.204;5.942;2023-03-04T05:21:32;0.18;;;0.17;;
15496;SDS011;7850;52.204;5.942;2023-03-04T05:22:32;0.10;;;0.10;;
15496;SDS011;7850;52.204;5.942;2023-03-04T05:23:33;0.20;;;0.20;;
15496;SDS011;7850;52.204;5.942;2023-03-04T05:24:32;0.10;;;0.10;;
15496;SDS011;7850;52.204;5.942;2023-03-04T05:25:32;0.10;;;0.10;;
15496;SDS011;7850;52.204;5.942;2023-03-04T05:26:32;0.15;;;0.15;;
15496;SDS011;7850;52.204;5.942;2023-03-04T05:27:32;0.10;;;0.10;;
15496;SDS011;7850;52.204;5.942;2023-03-04T05:28:32;0.19;;;0.19;;
15496;SDS011;7850;52.204;5.942;2023-03-04T05:29:32;0.10;;;0.10;;
15496;SDS011;7850;52.204;5.942;2023-03-04T05:30:32;0.10;;;0.10;;
15496;SDS011;7850;52.204;5.942;2023-03-04T05:31:32;0.16;;;0.16;;
15496;SDS011;7850;52.204;5.942;2023-03-04T05:32:32;0.10;;;0.10;;
15496;SDS011;7850;52.204;5.942;2023-03-04T05:33:32;0.10;;;0.10;;
15496;SDS011;7850;52.204;5.942;2023-03-04T05:34:32;0.10;;;0.10;;
15496;SDS011;7850;52.204;5.942;2023-03-04T05:35:33;0.18;;;0.18;;
15496;SDS011;7850;52.204;5.942;2023-03-04T05:36:33;0.13;;;0.12;;
15496;SDS011;7850;52.204;5.942;2023-03-04T05:37:33;0.10;;;0.10;;
15496;SDS011;7850;52.204;5.942;2023-03-04T05:38:33;0.10;;;0.10;;
15496;SDS011;7850;52.204;5.942;2023-03-04T05:39:33;0.13;;;0.13;;
15496;SDS011;7850;52.204;5.942;2023-03-04T05:40:33;0.10;;;0.10;;
15496;SDS011;7850;52.204;5.942;2023-03-04T05:41:33;0.11;;;0.10;;
15496;SDS011;7850;52.204;5.942;2023-03-04T05:42:33;0.10;;;0.10;;
15496;SDS011;7850;52.204;5.942;2023-03-04T05:43:33;0.10;;;0.10;;
15496;SDS011;7850;52.204;5.942;2023-03-04T05:44:33;0.10;;;0.10;;
15496;SDS011;7850;52.204;5.942;2023-03-04T05:45:33;0.10;;;0.10;;
15496;SDS011;7850;52.204;5.942;2023-03-04T05:46:33;0.14;;;0.14;;
15496;SDS011;7850;52.204;5.942;2023-03-04T05:47:33;0.14;;;0.13;;
15496;SDS011;7850;52.204;5.942;2023-03-04T05:48:33;0.16;;;0.15;;
15496;SDS011;7850;52.204;5.942;2023-03-04T05:49:33;0.20;;;0.20;;
15496;SDS011;7850;52.204;5.942;2023-03-04T05:50:34;0.11;;;0.11;;
15496;SDS011;7850;52.204;5.942;2023-03-04T05:51:34;0.10;;;0.10;;
15496;SDS011;7850;52.204;5.942;2023-03-04T05:52:34;0.15;;;0.15;;
15496;SDS011;7850;52.204;5.942;2023-03-04T05:53:34;0.10;;;0.10;;
15496;SDS011;7850;52.204;5.942;2023-03-04T05:54:34;0.11;;;0.10;;
15496;SDS011;7850;52.204;5.942;2023-03-04T05:55:34;0.12;;;0.12;;
15496;SDS011;7850;52.204;5.942;2023-03-04T05:56:34;0.10;;;0.10;;
15496;SDS011;7850;52.204;5.942;2023-03-04T05:57:34;0.20;;;0.20;;
15496;SDS011;7850;52.204;5.942;2023-03-04T05:58:34;0.20;;;0.20;;
15496;SDS011;7850;52.204;5.942;2023-03-04T05:59:34;0.10;;;0.10;;
15496;SDS011;7850;52.204;5.942;2023-03-04T06:00:34;0.19;;;0.19;;
15496;SDS011;7850;52.204;5.942;2023-03-04T06:01:34;0.10;;;0.10;;
15496;SDS011;7850;52.204;5.942;2023-03-04T06:02:34;0.20;;;0.20;;
15496;SDS011;7850;52.204;5.942;2023-03-04T06:03:35;0.10;;;0.10;;
15496;SDS011;7850;52.204;5.942;2023-03-04T06:04:34;0.10;;;0.10;;
15496;SDS011;7850;52.204;5.942;2023-03-04T06:05:34;0.10;;;0.10;;
15496;SDS011;7850;52.204;5.942;2023-03-04T06:06:35;0.10;;;0.10;;